Muddy Gap, Wyoming
Current Conditions -  °F | °C
As of 6:53 AM on Wednesday 28 Jan 2015 (Local Time) from KRWL Reporting Station
Broken Clouds Broken Clouds  
Wind Chill: 25°   Ceiling: 11000
Heat Index: 35°   Visibility: 10mi
Dew Point: 29°   Wind: 17mph
Humidity: 78%   Direction: 250°WSW
Pressure: 30.13"   Gusts: 25mph
Location:  41.7532°N, 107.372°W
Report Text: KRWL 281353Z AUTO 25015G22KT 10SM BKN110 02/M02 A3013 RMK AO2 PK WND 26030/1329 SLP190 T00171017
Loading
Personal Weather Stations






























Interactive Weather Map New forecast layout! Learn more

10-Day Weather Forecast

Advertisements
Track Severe Weather on mobile